createdAt,value
2024-04-19T00:01:22.798Z,2.63
2024-04-19T00:03:52.673Z,1.50
2024-04-19T00:06:25.505Z,1.43
2024-04-19T00:08:53.458Z,1.70
2024-04-19T00:11:23.894Z,3.60
2024-04-19T00:13:54.474Z,2.43
2024-04-19T00:16:27.405Z,3.23
2024-04-19T00:18:54.997Z,2.50
2024-04-19T00:21:26.205Z,2.23
2024-04-19T00:23:54.213Z,2.23
2024-04-19T00:26:25.729Z,3.27
2024-04-19T00:28:53.454Z,2.13
2024-04-19T00:31:23.676Z,2.20
2024-04-19T00:33:56.560Z,2.47
2024-04-19T00:36:27.997Z,3.60
2024-04-19T00:38:58.137Z,2.83
2024-04-19T00:41:25.733Z,4.10
2024-04-19T00:43:56.005Z,3.73
2024-04-19T00:46:26.776Z,3.23
2024-04-19T00:49:02.647Z,4.33
2024-04-19T00:51:30.453Z,3.67
2024-04-19T00:54:06.058Z,1.90
2024-04-19T00:56:33.927Z,3.77
2024-04-19T00:59:04.261Z,3.50
2024-04-19T01:01:32.005Z,3.90
2024-04-19T01:04:04.881Z,4.70
2024-04-19T01:06:32.569Z,4.20
2024-04-19T01:09:05.735Z,3.70
2024-04-19T01:11:33.781Z,3.03
2024-04-19T01:14:04.266Z,2.87
2024-04-19T01:16:31.861Z,5.43
2024-04-19T01:19:04.953Z,2.70
2024-04-19T01:21:32.693Z,4.30
2024-04-19T01:24:05.090Z,2.47
2024-04-19T01:26:35.319Z,4.47
2024-04-19T01:29:05.760Z,5.27
2024-04-19T01:31:33.315Z,4.87
2024-04-19T01:34:03.496Z,5.83
2024-04-19T01:36:31.114Z,3.73
2024-04-19T01:39:01.295Z,3.47
2024-04-19T01:41:29.085Z,2.87
2024-04-19T01:44:02.402Z,3.80
2024-04-19T01:46:33.050Z,3.47
2024-04-19T01:49:03.277Z,4.43
2024-04-19T01:51:30.992Z,5.60
2024-04-19T01:54:01.246Z,9.07
2024-04-19T01:56:29.692Z,8.90
2024-04-19T01:59:02.588Z,5.93
2024-04-19T02:01:30.493Z,7.67
2024-04-19T02:04:00.755Z,3.93
2024-04-19T02:06:28.464Z,6.67
2024-04-19T02:08:58.707Z,7.17
2024-04-19T02:11:26.270Z,7.30
2024-04-19T02:13:56.554Z,8.00
2024-04-19T02:16:27.110Z,8.37
2024-04-19T02:18:57.408Z,9.23
2024-04-19T02:21:29.012Z,5.60
2024-04-19T02:24:02.567Z,3.37
2024-04-19T02:26:30.180Z,5.63
2024-04-19T02:29:16.452Z,2.73
2024-04-19T02:31:52.010Z,7.07
2024-04-19T02:34:22.302Z,5.97
2024-04-19T02:36:52.622Z,4.47
2024-04-19T02:39:22.973Z,4.07
2024-04-19T02:41:53.235Z,4.70
2024-04-19T02:44:23.523Z,2.37
2024-04-19T02:46:56.413Z,5.77
2024-04-19T02:49:26.974Z,3.37
2024-04-19T02:52:00.482Z,1.17
2024-04-19T02:54:30.838Z,8.87
2024-04-19T02:57:01.764Z,0.90
2024-04-19T02:59:29.314Z,0.87
2024-04-19T03:02:02.210Z,0.93
2024-04-19T03:04:32.533Z,0.67
2024-04-19T03:07:02.838Z,0.50
2024-04-19T03:09:35.872Z,0.50
2024-04-19T03:12:06.099Z,0.50
2024-04-19T03:14:38.752Z,0.70
2024-04-19T03:17:11.818Z,0.50
2024-04-19T03:19:42.069Z,0.50
2024-04-19T03:22:12.803Z,0.50
2024-04-19T03:24:42.943Z,2.67
2024-04-19T03:27:13.201Z,8.63
2024-04-19T03:29:43.482Z,0.50
2024-04-19T03:32:16.460Z,1.33
2024-04-19T03:34:46.689Z,3.60
2024-04-19T03:37:16.872Z,4.63
2024-04-19T03:39:47.234Z,4.30
2024-04-19T03:42:21.520Z,5.37
2024-04-19T03:45:08.170Z,3.13
2024-04-19T03:47:41.333Z,4.13
2024-04-19T03:50:11.572Z,9.70
2024-04-19T03:52:41.682Z,3.47
2024-04-19T03:55:11.924Z,7.00
2024-04-19T03:57:45.095Z,2.87
2024-04-19T04:00:15.631Z,3.90
2024-04-19T04:02:54.606Z,4.93
2024-04-19T04:05:26.502Z,3.33
2024-04-19T04:07:56.745Z,2.90
2024-04-19T04:10:26.959Z,3.50
2024-04-19T04:12:58.348Z,3.97
2024-04-19T04:15:28.952Z,3.87
2024-04-19T04:18:03.648Z,3.50
2024-04-19T04:20:34.427Z,5.23
2024-04-19T04:23:04.701Z,3.27
2024-04-19T04:25:37.428Z,4.03
2024-04-19T04:28:07.942Z,2.60
2024-04-19T04:30:43.114Z,4.57
2024-04-19T04:33:16.365Z,2.33
2024-04-19T04:35:51.550Z,2.60
2024-04-19T04:38:21.920Z,4.30
2024-04-19T04:40:52.056Z,2.60
2024-04-19T04:43:22.738Z,1.93
2024-04-19T04:45:53.013Z,1.27
2024-04-19T04:48:26.018Z,3.10
2024-04-19T04:50:56.490Z,1.63
2024-04-19T04:53:26.743Z,3.40
2024-04-19T04:55:57.089Z,2.97
2024-04-19T04:58:27.664Z,4.00
2024-04-19T05:01:00.475Z,3.33
2024-04-19T05:03:33.438Z,2.83
2024-04-19T05:06:03.878Z,4.10
2024-04-19T05:08:34.049Z,3.47
2024-04-19T05:11:06.663Z,3.70
2024-04-19T05:13:37.561Z,2.03
2024-04-19T05:16:08.001Z,3.10
2024-04-19T05:18:41.007Z,4.80
2024-04-19T05:21:11.215Z,3.33
2024-04-19T05:23:42.626Z,2.17
2024-04-19T05:26:12.863Z,2.60
2024-04-19T05:28:43.059Z,2.73
2024-04-19T05:31:13.357Z,2.67
2024-04-19T05:33:47.056Z,3.30
2024-04-19T05:36:19.288Z,0.97
2024-04-19T05:38:49.658Z,4.23
2024-04-19T05:41:19.814Z,3.47
2024-04-19T05:43:54.236Z,2.17
2024-04-19T05:46:24.770Z,2.93
2024-04-19T05:48:58.858Z,3.50
2024-04-19T05:51:29.774Z,1.60
2024-04-19T05:54:03.566Z,2.20
2024-04-19T05:56:33.952Z,2.97
2024-04-19T05:59:04.372Z,2.23
2024-04-19T06:01:34.598Z,2.37
2024-04-19T06:04:09.166Z,3.50
2024-04-19T06:06:39.529Z,1.30
2024-04-19T06:09:09.862Z,2.10
2024-04-19T06:11:40.292Z,3.13
2024-04-19T06:14:10.539Z,2.70
2024-04-19T06:16:40.721Z,2.33
2024-04-19T06:19:13.792Z,0.40
2024-04-19T06:21:44.101Z,0.40
2024-04-19T06:24:14.352Z,2.40
2024-04-19T06:26:44.601Z,0.40
2024-04-19T06:29:14.917Z,0.40
2024-04-19T06:31:45.676Z,0.40
2024-04-19T06:34:18.586Z,1.03
2024-04-19T06:36:49.243Z,4.23
2024-04-19T06:39:27.699Z,0.77
2024-04-19T06:41:58.654Z,0.90
2024-04-19T06:44:29.152Z,0.40
2024-04-19T06:46:59.300Z,0.50
2024-04-19T06:49:32.233Z,0.40
2024-04-19T06:52:02.537Z,0.60
2024-04-19T06:54:32.851Z,0.40
2024-04-19T06:57:03.268Z,0.40
2024-04-19T06:59:33.462Z,0.40
2024-04-19T07:02:05.542Z,0.50
2024-04-19T07:04:38.414Z,0.50
2024-04-19T07:07:08.937Z,0.43
2024-04-19T07:09:39.333Z,0.50
2024-04-19T07:12:10.037Z,0.47
2024-04-19T07:14:40.590Z,0.50
2024-04-19T07:17:12.611Z,0.40
2024-04-19T07:19:42.908Z,0.40
2024-04-19T07:22:13.290Z,0.50
2024-04-19T07:24:43.588Z,0.40
2024-04-19T07:27:15.310Z,1.60
2024-04-19T07:29:45.659Z,0.43
2024-04-19T07:32:16.794Z,0.57
2024-04-19T07:34:51.452Z,0.50
2024-04-19T07:37:22.257Z,1.03
2024-04-19T07:39:55.770Z,0.50
2024-04-19T07:42:28.297Z,0.50
2024-04-19T07:45:04.041Z,0.50
2024-04-19T07:47:34.491Z,0.50
2024-04-19T07:50:07.608Z,0.50
2024-04-19T07:52:37.943Z,0.50
2024-04-19T07:55:09.268Z,0.47
2024-04-19T07:57:42.004Z,0.50
2024-04-19T08:00:21.927Z,0.50
2024-04-19T08:02:52.476Z,0.50
2024-04-19T08:05:25.523Z,0.50
2024-04-19T08:07:57.629Z,0.50
2024-04-19T08:10:30.702Z,0.50
2024-04-19T08:13:09.557Z,0.50
2024-04-19T08:15:39.877Z,0.50
2024-04-19T08:18:12.368Z,0.50
2024-04-19T08:20:45.460Z,0.90
2024-04-19T08:23:17.909Z,0.50
2024-04-19T08:25:48.992Z,0.40
2024-04-19T08:28:27.113Z,0.50
2024-04-19T08:30:59.847Z,0.50
2024-04-19T08:33:31.934Z,0.50
2024-04-19T08:36:05.141Z,0.47
2024-04-19T08:38:35.651Z,1.10
2024-04-19T08:41:07.046Z,0.50
2024-04-19T08:43:38.678Z,0.50
2024-04-19T08:46:10.117Z,0.70
2024-04-19T08:48:44.333Z,0.40
2024-04-19T08:51:26.469Z,1.03
2024-04-19T08:54:06.592Z,1.57
2024-04-19T08:56:38.609Z,0.50
2024-04-19T08:59:09.707Z,0.40
2024-04-19T09:01:40.400Z,0.40
2024-04-19T09:04:13.144Z,1.30
2024-04-19T09:06:52.577Z,2.07
2024-04-19T09:09:23.170Z,0.60
2024-04-19T09:11:55.534Z,3.63
2024-04-19T09:14:26.075Z,0.77
2024-04-19T09:16:56.853Z,2.80
2024-04-19T09:19:31.058Z,1.10
2024-04-19T09:22:06.084Z,1.17
2024-04-19T09:24:37.220Z,1.80
2024-04-19T09:27:15.970Z,0.50
2024-04-19T09:29:46.951Z,4.47
2024-04-19T09:32:17.461Z,2.10
2024-04-19T09:34:50.978Z,2.73
2024-04-19T09:37:24.458Z,0.60
2024-04-19T09:39:55.056Z,0.50
2024-04-19T09:42:26.797Z,0.50
2024-04-19T09:44:57.348Z,0.60
2024-04-19T09:47:36.651Z,1.03
2024-04-19T09:50:07.558Z,0.50
2024-04-19T09:52:41.214Z,1.23
2024-04-19T09:55:13.553Z,0.50
2024-04-19T09:57:47.642Z,1.87
2024-04-19T10:00:19.025Z,1.27
2024-04-19T10:02:53.503Z,1.10
2024-04-19T10:05:23.917Z,2.33
2024-04-19T10:08:00.264Z,3.13
2024-04-19T10:10:30.629Z,2.30
2024-04-19T10:13:01.835Z,5.07
2024-04-19T10:15:32.491Z,4.67
2024-04-19T10:18:07.516Z,4.33
2024-04-19T10:20:42.465Z,5.20
2024-04-19T10:23:16.299Z,5.60
2024-04-19T10:25:47.934Z,3.07
2024-04-19T10:28:20.533Z,0.70
2024-04-19T10:30:50.370Z,1.70
2024-04-19T10:33:20.787Z,1.90
2024-04-19T10:35:51.407Z,2.33
2024-04-19T10:38:26.336Z,1.70
2024-04-19T10:40:57.241Z,3.83
2024-04-19T10:43:27.877Z,1.37
2024-04-19T10:46:01.568Z,0.93
2024-04-19T10:48:33.535Z,0.63
2024-04-19T10:51:06.158Z,1.57
2024-04-19T10:53:43.971Z,2.43
2024-04-19T10:56:15.939Z,2.80
2024-04-19T10:58:46.878Z,2.80
2024-04-19T11:01:20.108Z,2.80
2024-04-19T11:03:53.291Z,3.23
2024-04-19T11:06:24.856Z,2.67
2024-04-19T11:08:58.207Z,3.50
2024-04-19T11:11:35.130Z,2.47
2024-04-19T11:14:05.469Z,2.40
2024-04-19T11:16:35.917Z,3.20
2024-04-19T11:19:08.242Z,2.50
2024-04-19T11:21:39.001Z,3.00
2024-04-19T11:24:12.556Z,2.50
2024-04-19T11:26:44.067Z,3.37
2024-04-19T11:29:15.260Z,2.90
2024-04-19T11:31:45.705Z,3.00
2024-04-19T11:34:16.196Z,2.40
2024-04-19T11:36:47.196Z,3.47
2024-04-19T11:39:20.232Z,2.97
2024-04-19T11:41:50.712Z,2.73
2024-04-19T11:44:21.145Z,3.30
2024-04-19T11:46:51.614Z,1.73
2024-04-19T11:49:22.048Z,2.60
2024-04-19T11:51:55.861Z,3.60
2024-04-19T11:54:29.211Z,0.40
2024-04-19T11:56:59.604Z,5.30
2024-04-19T11:59:29.892Z,0.50
2024-04-19T12:02:01.420Z,0.50
2024-04-19T12:04:31.805Z,0.50
2024-04-19T12:07:02.732Z,0.50
2024-04-19T12:09:36.197Z,0.50
2024-04-19T12:12:51.746Z,0.50
2024-04-19T12:15:43.444Z,0.60
2024-04-19T12:17:47.871Z,0.50
2024-04-19T12:20:29.832Z,0.50
2024-04-19T12:23:12.251Z,0.50
2024-04-19T12:25:46.558Z,1.97
2024-04-19T12:28:17.320Z,0.80
2024-04-19T12:30:48.688Z,0.60
2024-04-19T12:33:19.099Z,2.00
2024-04-19T12:35:50.683Z,2.03
2024-04-19T12:38:20.952Z,4.00
2024-04-19T12:40:53.941Z,3.70
2024-04-19T12:43:24.366Z,4.00
2024-04-19T12:45:59.351Z,4.37
2024-04-19T12:48:29.814Z,3.07
2024-04-19T12:51:00.296Z,2.47
2024-04-19T12:53:30.751Z,3.90
2024-04-19T12:56:06.246Z,4.00
2024-04-19T12:58:37.706Z,3.87
2024-04-19T13:01:09.023Z,4.10
2024-04-19T13:03:39.507Z,3.57
2024-04-19T13:06:10.002Z,3.37
2024-04-19T13:08:40.713Z,3.77
2024-04-19T13:11:13.882Z,4.53
2024-04-19T13:14:02.309Z,4.53
2024-04-19T13:16:36.142Z,4.33
2024-04-19T13:19:06.745Z,3.40
2024-04-19T13:21:37.105Z,3.10
2024-04-19T13:24:07.927Z,3.30
2024-04-19T13:26:43.340Z,1.93
2024-04-19T13:29:16.770Z,3.13
2024-04-19T13:31:52.077Z,2.97
2024-04-19T13:34:27.120Z,4.00
2024-04-19T13:36:57.977Z,3.27
2024-04-19T13:39:30.461Z,2.93
2024-04-19T13:42:05.071Z,3.13
2024-04-19T13:44:44.497Z,3.87
2024-04-19T13:47:19.970Z,3.23
2024-04-19T13:49:50.767Z,3.13
2024-04-19T13:52:28.664Z,4.43
2024-04-19T13:55:07.025Z,3.17
2024-04-19T13:57:47.395Z,4.33
2024-04-19T14:00:18.450Z,4.07
2024-04-19T14:02:52.075Z,4.43
2024-04-19T14:05:23.410Z,2.77
2024-04-19T14:07:56.928Z,2.57
2024-04-19T14:10:29.913Z,2.83
2024-04-19T14:13:04.428Z,2.60
2024-04-19T14:15:36.560Z,3.03
2024-04-19T14:18:07.316Z,3.47
2024-04-19T14:20:41.727Z,1.87
2024-04-19T14:23:12.155Z,2.70
2024-04-19T14:25:47.730Z,1.87
2024-04-19T14:28:20.981Z,3.13
2024-04-19T14:30:52.876Z,2.50
2024-04-19T14:33:23.918Z,3.13
2024-04-19T14:35:55.934Z,2.77
2024-04-19T14:38:28.822Z,1.70
2024-04-19T14:41:01.820Z,1.77
2024-04-19T14:43:38.605Z,2.20
2024-04-19T14:46:13.655Z,3.10
2024-04-19T14:48:48.833Z,3.53
2024-04-19T14:51:25.031Z,3.23
2024-04-19T14:53:56.757Z,2.67
2024-04-19T14:56:26.406Z,5.33
2024-04-19T14:59:07.267Z,4.57
2024-04-19T15:01:43.956Z,3.97
2024-04-19T15:04:14.654Z,5.43
2024-04-19T15:06:49.626Z,4.43
2024-04-19T15:09:20.298Z,4.80
2024-04-19T15:11:53.787Z,3.90
2024-04-19T15:14:26.975Z,5.77
2024-04-19T15:17:03.113Z,2.07
2024-04-19T15:19:36.665Z,5.47
2024-04-19T15:22:07.524Z,3.47
2024-04-19T15:24:38.153Z,7.03
2024-04-19T15:27:11.969Z,4.90
2024-04-19T15:29:46.884Z,5.27
2024-04-19T15:32:19.586Z,5.50
2024-04-19T15:34:53.244Z,4.60
2024-04-19T15:37:24.001Z,6.07
2024-04-19T15:39:57.238Z,5.63
2024-04-19T15:42:27.882Z,4.17
2024-04-19T15:45:04.211Z,7.50
2024-04-19T15:47:34.758Z,5.13
2024-04-19T15:50:05.205Z,6.80
2024-04-19T15:52:37.251Z,4.70
2024-04-19T15:55:10.373Z,5.63
2024-04-19T15:57:45.168Z,6.73
2024-04-19T16:00:18.603Z,4.77
2024-04-19T16:02:49.651Z,4.87
2024-04-19T16:05:24.693Z,3.77
2024-04-19T16:07:55.220Z,4.37
2024-04-19T16:10:25.715Z,4.83
2024-04-19T16:12:56.353Z,4.33
2024-04-19T16:15:29.392Z,3.40
2024-04-19T16:18:00.316Z,3.40
2024-04-19T16:20:30.708Z,2.50
2024-04-19T16:23:02.765Z,2.60
2024-04-19T16:25:33.105Z,3.30
2024-04-19T16:28:06.862Z,3.30
2024-04-19T16:30:39.759Z,4.27
2024-04-19T16:33:10.139Z,4.57
2024-04-19T16:35:47.879Z,4.37
2024-04-19T16:38:26.533Z,3.87
2024-04-19T16:40:56.893Z,3.97
2024-04-19T16:43:27.304Z,2.43
2024-04-19T16:46:00.846Z,5.33
2024-04-19T16:48:32.548Z,4.13
2024-04-19T16:51:02.983Z,5.80
2024-04-19T16:53:33.257Z,5.00
2024-04-19T16:56:06.234Z,4.40
2024-04-19T16:58:38.248Z,4.60
2024-04-19T17:01:11.256Z,5.60
2024-04-19T17:03:41.559Z,4.73
2024-04-19T17:06:12.321Z,5.67
2024-04-19T17:08:42.528Z,3.87
2024-04-19T17:11:13.813Z,4.97
2024-04-19T17:13:44.488Z,3.07
2024-04-19T17:16:17.436Z,4.17
2024-04-19T17:18:58.051Z,3.53
2024-04-19T17:21:28.480Z,4.00
2024-04-19T17:23:58.659Z,4.63
2024-04-19T17:26:29.725Z,3.83
2024-04-19T17:28:59.995Z,3.73
2024-04-19T17:31:33.020Z,4.43
2024-04-19T17:34:07.620Z,4.23
2024-04-19T17:36:37.909Z,4.67
2024-04-19T17:39:08.298Z,4.20
2024-04-19T17:41:39.342Z,4.90
2024-04-19T17:44:09.881Z,1.90
2024-04-19T17:46:42.753Z,1.57
2024-04-19T17:49:12.919Z,1.63
2024-04-19T17:51:43.344Z,0.73
2024-04-19T17:54:13.842Z,0.73
2024-04-19T17:56:44.113Z,5.70
2024-04-19T17:59:16.125Z,1.73
2024-04-19T18:01:49.494Z,0.70
2024-04-19T18:04:20.003Z,0.90
2024-04-19T18:06:53.491Z,1.20
2024-04-19T18:09:23.983Z,2.00
2024-04-19T18:11:54.593Z,0.70
2024-04-19T18:14:24.747Z,3.90
2024-04-19T18:16:58.526Z,5.27
2024-04-19T18:19:29.500Z,5.00
2024-04-19T18:21:59.928Z,5.20
2024-04-19T18:24:31.707Z,7.73
2024-04-19T18:27:02.995Z,5.57
2024-04-19T18:29:34.202Z,5.73
2024-04-19T18:32:10.274Z,5.90
2024-04-19T18:34:40.495Z,6.57
2024-04-19T18:37:11.234Z,5.27
2024-04-19T18:39:43.779Z,5.00
2024-04-19T18:42:14.333Z,6.67
2024-04-19T18:44:44.544Z,4.60
2024-04-19T18:47:19.863Z,2.80
2024-04-19T18:49:50.880Z,3.33
2024-04-19T18:52:21.072Z,3.33
2024-04-19T18:54:51.306Z,1.10
2024-04-19T18:57:21.569Z,0.60
2024-04-19T18:59:56.799Z,2.67
2024-04-19T19:02:29.703Z,0.80
2024-04-19T19:05:00.014Z,1.33
2024-04-19T19:07:30.290Z,0.70
2024-04-19T19:10:01.666Z,0.93
2024-04-19T19:12:32.111Z,0.80
2024-04-19T19:15:02.346Z,0.70
2024-04-19T19:17:35.183Z,2.93
2024-04-19T19:20:09.603Z,0.80
2024-04-19T19:22:39.773Z,1.57
2024-04-19T19:25:10.212Z,1.37
2024-04-19T19:27:41.849Z,3.00
2024-04-19T19:30:13.106Z,2.83
2024-04-19T19:32:46.116Z,2.67
2024-04-19T19:35:16.366Z,3.03
2024-04-19T19:37:46.733Z,3.07
2024-04-19T19:40:17.026Z,2.80
2024-04-19T19:42:47.666Z,3.77
2024-04-19T19:45:18.330Z,2.80
2024-04-19T19:47:51.626Z,3.27
2024-04-19T19:50:21.951Z,3.37
2024-04-19T19:52:52.120Z,3.90
2024-04-19T19:55:25.112Z,2.67
2024-04-19T19:57:56.803Z,4.03
2024-04-19T20:00:43.117Z,5.17
2024-04-19T20:03:31.996Z,7.27
2024-04-19T20:06:03.493Z,4.87
2024-04-19T20:08:33.798Z,6.00
2024-04-19T20:11:02.305Z,4.67
2024-04-19T20:13:32.973Z,4.03
2024-04-19T20:16:03.274Z,3.33
2024-04-19T20:18:39.311Z,2.23
2024-04-19T20:21:09.643Z,3.43
2024-04-19T20:23:42.563Z,3.10
2024-04-19T20:26:14.911Z,4.57
2024-04-19T20:28:47.311Z,1.10
2024-04-19T20:31:17.769Z,1.63
2024-04-19T20:33:53.229Z,0.80
2024-04-19T20:36:23.419Z,1.23
2024-04-19T20:38:53.521Z,1.97
2024-04-19T20:41:23.659Z,0.93
2024-04-19T20:43:53.963Z,3.90
2024-04-19T20:46:27.070Z,3.43
2024-04-19T20:48:59.952Z,0.93
2024-04-19T20:51:30.400Z,1.27
2024-04-19T20:54:01.699Z,0.90
2024-04-19T20:56:31.941Z,3.03
2024-04-19T20:59:02.114Z,0.80
2024-04-19T21:01:32.342Z,4.60
2024-04-19T21:04:07.835Z,2.47
2024-04-19T21:06:38.494Z,1.10
2024-04-19T21:09:09.070Z,1.97
2024-04-19T21:11:40.687Z,1.00
2024-04-19T21:14:11.336Z,1.13
2024-04-19T21:16:43.351Z,1.10
2024-04-19T21:19:16.352Z,2.20
2024-04-19T21:21:46.648Z,2.07
2024-04-19T21:24:16.944Z,2.83
2024-04-19T21:26:47.155Z,4.30
2024-04-19T21:29:17.326Z,5.03
2024-04-19T21:31:50.678Z,5.90
2024-04-19T21:34:23.423Z,7.20
2024-04-19T21:36:56.822Z,5.33
2024-04-19T21:39:27.096Z,4.33
2024-04-19T21:41:57.283Z,4.90
2024-04-19T21:44:28.424Z,4.63
2024-04-19T21:46:58.723Z,3.47
2024-04-19T21:49:31.608Z,3.77
2024-04-19T21:52:02.009Z,4.17
2024-04-19T21:54:32.261Z,4.33
2024-04-19T21:57:02.561Z,4.37
2024-04-19T21:59:32.696Z,4.00
2024-04-19T22:02:03.153Z,4.30
2024-04-19T22:04:35.981Z,3.30
2024-04-19T22:07:07.128Z,4.83
2024-04-19T22:09:37.428Z,3.90
2024-04-19T22:12:07.881Z,4.13
2024-04-19T22:14:38.051Z,5.23
2024-04-19T22:17:12.696Z,4.00
2024-04-19T22:19:47.510Z,3.87
2024-04-19T22:22:17.764Z,4.87
2024-04-19T22:24:50.573Z,5.73
2024-04-19T22:27:20.836Z,3.83
2024-04-19T22:29:51.255Z,4.13
2024-04-19T22:32:23.917Z,5.03
2024-04-19T22:34:57.256Z,3.63
2024-04-19T22:37:27.545Z,4.73
2024-04-19T22:39:57.832Z,3.90
2024-04-19T22:42:28.899Z,4.70
2024-04-19T22:44:59.039Z,4.07
2024-04-19T22:47:29.781Z,4.13
2024-04-19T22:50:02.748Z,3.43
2024-04-19T22:52:32.931Z,4.03
2024-04-19T22:55:03.340Z,4.40
2024-04-19T22:57:33.776Z,3.87
2024-04-19T23:00:03.976Z,5.13
2024-04-19T23:02:34.255Z,4.93
2024-04-19T23:05:10.813Z,2.93
2024-04-19T23:07:41.105Z,4.17
2024-04-19T23:10:11.431Z,4.47
2024-04-19T23:12:41.773Z,0.60
2024-04-19T23:15:12.144Z,0.70
2024-04-19T23:17:43.820Z,0.70
2024-04-19T23:20:16.794Z,0.70
2024-04-19T23:22:47.280Z,1.00
2024-04-19T23:25:17.486Z,0.90
2024-04-19T23:27:49.003Z,1.47
2024-04-19T23:30:22.305Z,0.60
2024-04-19T23:32:52.888Z,0.63
2024-04-19T23:35:25.684Z,1.17
2024-04-19T23:37:55.939Z,1.60
2024-04-19T23:40:29.313Z,1.43
2024-04-19T23:42:59.735Z,1.10
2024-04-19T23:45:29.979Z,3.27
2024-04-19T23:48:00.334Z,0.90
2024-04-19T23:50:33.497Z,1.13
2024-04-19T23:53:03.735Z,0.70
2024-04-19T23:55:34.247Z,2.00
2024-04-19T23:58:07.234Z,2.40
